Time;durP1;ratioP1;P1;durP2;ratioP2;P2;SDS_P1;SDS_P2;PMS_P1;PMS_P2;Temp;Humidity;BMP_temperature;BMP_pressure;BME280_temperature;BME280_humidity;BME280_pressure;Samples;Min_cycle;Max_cycle;Signal;HPM_P1;HPM_P2
2024/04/24 00:01:07;;;;;;;7.50;3.78;;;;;;;7.32;48.08;98491.38;5416844;26;20333;-61
2024/04/24 00:03:34;;;;;;;4.47;3.40;;;;;;;7.29;48.13;98480.06;5422738;26;20011;-62
2024/04/24 00:06:01;;;;;;;4.45;3.70;;;;;;;7.26;48.10;98478.00;5420423;26;20003;-62
2024/04/24 00:08:28;;;;;;;5.22;3.38;;;;;;;7.21;48.36;98471.94;5417338;26;20000;-62
2024/04/24 00:10:55;;;;;;;5.22;3.80;;;;;;;7.09;48.52;98472.66;5417236;26;20313;-62
2024/04/24 00:13:22;;;;;;;4.43;3.78;;;;;;;6.92;49.30;98470.03;5417564;26;19999;-61
2024/04/24 00:15:49;;;;;;;4.70;3.40;;;;;;;6.83;49.33;98467.34;5417507;26;19996;-62
2024/04/24 00:18:15;;;;;;;4.50;3.40;;;;;;;6.75;49.55;98464.66;5417112;26;20014;-61
2024/04/24 00:20:42;;;;;;;4.60;3.42;;;;;;;6.65;50.13;98469.31;5416312;26;20003;-62
2024/04/24 00:23:09;;;;;;;3.60;3.20;;;;;;;6.50;50.54;98458.19;5417192;26;20068;-61
2024/04/24 00:25:36;;;;;;;4.70;3.75;;;;;;;6.45;50.66;98461.06;5417162;26;20419;-61
2024/04/24 00:28:03;;;;;;;5.97;3.85;;;;;;;6.42;50.73;98456.31;5417734;26;20003;-60
2024/04/24 00:30:29;;;;;;;6.25;3.97;;;;;;;6.38;50.86;98456.97;5418648;26;20006;-61
2024/04/24 00:32:57;;;;;;;6.13;4.07;;;;;;;6.42;50.64;98453.59;5420144;26;19996;-61
2024/04/24 00:35:23;;;;;;;5.00;3.95;;;;;;;6.40;50.83;98445.78;5428919;26;20053;-61
2024/04/24 00:37:50;;;;;;;6.05;4.13;;;;;;;6.45;50.63;98447.53;5419675;26;20021;-61
2024/04/24 00:40:17;;;;;;;4.60;3.72;;;;;;;6.48;50.55;98444.97;5419080;26;20392;-61
2024/04/24 00:42:44;;;;;;;4.40;3.42;;;;;;;6.41;50.56;98438.47;5416432;26;19999;-61
2024/04/24 00:45:11;;;;;;;7.70;3.58;;;;;;;6.30;51.14;98424.47;5418659;26;19991;-61
2024/04/24 00:47:39;;;;;;;7.35;3.70;;;;;;;6.27;51.28;98419.69;5418855;26;20000;-61
2024/04/24 00:50:12;;;;;;;4.18;3.58;;;;;;;6.35;51.16;98424.31;5418897;26;20006;-61
2024/04/24 00:52:40;;;;;;;4.35;3.28;;;;;;;6.41;51.26;98416.81;5418198;26;19999;-62
2024/04/24 00:55:08;;;;;;;4.53;3.90;;;;;;;6.44;51.16;98414.25;5417563;26;19995;-61
2024/04/24 00:57:35;;;;;;;6.18;4.07;;;;;;;6.38;51.00;98410.91;5418671;26;20004;-62
2024/04/24 01:00:02;;;;;;;5.22;3.45;;;;;;;6.16;51.43;98403.00;5419605;26;19991;-61
2024/04/24 01:02:29;;;;;;;4.68;3.50;;;;;;;5.94;51.98;98397.78;5418144;26;20003;-62
2024/04/24 01:04:55;;;;;;;5.82;4.38;;;;;;;5.78;52.51;98400.19;5426744;26;20014;-62
2024/04/24 01:07:22;;;;;;;5.53;3.60;;;;;;;5.74;52.87;98401.91;5416988;26;20088;-61
2024/04/24 01:09:49;;;;;;;5.05;3.83;;;;;;;5.76;53.11;98399.66;5416819;26;20037;-61
2024/04/24 01:12:16;;;;;;;4.40;3.83;;;;;;;5.77;52.60;98398.59;5416263;26;20011;-62
2024/04/24 01:14:43;;;;;;;4.78;3.80;;;;;;;5.75;52.89;98389.97;5416788;26;20010;-62
2024/04/24 01:17:11;;;;;;;6.80;3.95;;;;;;;5.69;53.15;98388.56;5416572;26;20003;-62
2024/04/24 01:19:46;;;;;;;6.43;4.43;;;;;;;5.68;53.07;98387.75;5416660;26;20413;-62
2024/04/24 01:22:25;;;;;;;8.15;3.95;;;;;;;5.65;52.91;98385.69;5415664;26;20072;-60
2024/04/24 01:25:02;;;;;;;6.88;3.97;;;;;;;5.67;53.06;98383.47;5416316;26;20007;-60
2024/04/24 01:27:29;;;;;;;4.70;3.78;;;;;;;5.69;52.99;98377.72;5416517;26;20074;-61
2024/04/24 01:29:56;;;;;;;5.32;3.78;;;;;;;5.68;53.04;98378.84;5416061;26;19995;-61
2024/04/24 01:32:22;;;;;;;6.05;3.90;;;;;;;5.69;53.02;98372.31;5419073;26;19999;-61
2024/04/24 01:34:49;;;;;;;8.02;3.92;;;;;;;5.62;53.18;98372.81;5425215;26;20022;-61
2024/04/24 01:37:16;;;;;;;6.72;3.83;;;;;;;5.72;53.32;98366.25;5400551;26;20061;-61
2024/04/24 01:39:43;;;;;;;5.28;4.30;;;;;;;5.68;53.43;98373.44;5415938;26;19996;-60
2024/04/24 01:42:09;;;;;;;6.82;4.15;;;;;;;5.52;53.40;98375.81;5415433;26;20003;-61
2024/04/24 01:44:36;;;;;;;4.97;4.07;;;;;;;5.43;54.30;98367.72;5415402;26;20000;-61
2024/04/24 01:47:03;;;;;;;6.13;4.20;;;;;;;5.33;54.68;98368.03;5415623;26;20000;-62
2024/04/24 01:49:29;;;;;;;5.45;3.78;;;;;;;5.31;54.44;98372.16;5415544;26;19999;-61
2024/04/24 01:51:56;;;;;;;10.38;4.35;;;;;;;5.22;54.48;98361.34;5415237;26;20000;-61
2024/04/24 01:54:23;;;;;;;7.38;4.45;;;;;;;5.24;55.06;98364.53;5415544;26;19995;-61
2024/04/24 01:56:49;;;;;;;6.03;4.72;;;;;;;5.39;55.14;98355.13;5474211;26;20011;-61
2024/04/24 01:59:16;;;;;;;7.43;4.40;;;;;;;5.57;54.49;98353.22;5473585;26;20007;-61
2024/04/24 02:01:43;;;;;;;5.82;4.60;;;;;;;5.50;53.85;98353.72;5415189;26;20007;-62
2024/04/24 02:04:09;;;;;;;5.32;4.50;;;;;;;5.41;54.30;98350.22;5423820;26;19995;-62
2024/04/24 02:06:36;;;;;;;8.70;4.57;;;;;;;5.31;54.87;98354.03;5415635;26;20022;-61
2024/04/24 02:09:03;;;;;;;5.85;4.30;;;;;;;5.35;55.00;98346.88;5415354;26;19995;-61
2024/04/24 02:11:31;;;;;;;5.40;3.83;;;;;;;5.43;54.66;98351.50;5419404;26;20003;-61
2024/04/24 02:14:01;;;;;;;8.48;4.15;;;;;;;5.46;54.67;98347.34;5417784;26;19999;-61
2024/04/24 02:16:28;;;;;;;7.40;4.28;;;;;;;5.39;54.29;98349.72;5419505;26;20004;-61
2024/04/24 02:18:56;;;;;;;5.15;4.60;;;;;;;5.31;54.92;98339.72;5419295;26;19995;-61
2024/04/24 02:21:23;;;;;;;7.22;4.75;;;;;;;5.35;55.38;98344.16;5418772;26;20000;-61
2024/04/24 02:23:50;;;;;;;5.68;4.43;;;;;;;5.59;54.70;98338.28;5419793;26;19996;-61
2024/04/24 02:26:16;;;;;;;5.00;4.28;;;;;;;5.82;54.40;98349.72;5417014;26;20077;-61
2024/04/24 02:28:43;;;;;;;5.28;4.20;;;;;;;5.96;53.51;98350.38;5418544;26;20010;-62
2024/04/24 02:31:10;;;;;;;5.15;4.32;;;;;;;5.98;53.10;98352.75;5418256;26;19999;-61
2024/04/24 02:33:38;;;;;;;5.60;4.47;;;;;;;5.95;53.45;98346.06;5425217;26;20502;-61
2024/04/24 02:36:05;;;;;;;5.82;4.25;;;;;;;6.02;53.27;98334.72;5420787;26;20085;-62
2024/04/24 02:38:32;;;;;;;9.55;4.80;;;;;;;6.08;53.43;98326.09;5418263;26;20015;-60
2024/04/24 02:40:58;;;;;;;7.55;4.97;;;;;;;6.26;53.30;98320.63;5417549;26;20003;-61
2024/04/24 02:43:25;;;;;;;8.32;4.88;;;;;;;6.35;53.07;98314.09;5417958;26;19996;-61
2024/04/24 02:45:52;;;;;;;7.93;4.97;;;;;;;6.48;53.23;98312.25;5446210;26;19996;-61
2024/04/24 02:48:19;;;;;;;7.30;5.07;;;;;;;6.60;52.73;98308.84;5416347;26;19995;-62
2024/04/24 02:50:46;;;;;;;9.00;5.43;;;;;;;6.56;52.45;98311.44;5417535;26;20012;-63
2024/04/24 02:53:13;;;;;;;7.57;4.93;;;;;;;6.34;53.09;98304.38;5418040;26;20440;-64
2024/04/24 02:55:39;;;;;;;7.75;4.90;;;;;;;6.21;53.37;98299.97;5417874;26;20077;-64
2024/04/24 02:58:06;;;;;;;6.90;4.93;;;;;;;6.24;53.45;98295.81;5417900;26;19995;-63
2024/04/24 03:00:33;;;;;;;7.32;4.93;;;;;;;6.29;53.50;98298.31;5415640;26;20023;-62
2024/04/24 03:03:01;;;;;;;7.45;5.13;;;;;;;6.38;53.82;98297.19;5417949;26;20011;-60
2024/04/24 03:05:28;;;;;;;8.07;5.53;;;;;;;6.54;53.17;98293.91;5427193;26;20003;-62
2024/04/24 03:07:55;;;;;;;6.72;5.68;;;;;;;6.62;53.08;98290.34;5416137;26;20000;-62
2024/04/24 03:10:22;;;;;;;11.02;6.80;;;;;;;6.70;52.86;98288.72;5417054;26;20045;-61
2024/04/24 03:12:49;;;;;;;7.30;5.63;;;;;;;6.77;52.64;98287.09;5417532;26;20669;-62
2024/04/24 03:15:15;;;;;;;8.88;6.00;;;;;;;6.80;52.41;98281.00;5417876;26;20007;-60
2024/04/24 03:17:42;;;;;;;8.07;6.35;;;;;;;6.81;52.67;98279.09;5417748;26;19995;-61
2024/04/24 03:20:10;;;;;;;8.27;6.72;;;;;;;6.80;52.39;98272.88;5417524;26;20401;-60
2024/04/24 03:22:37;;;;;;;9.35;6.07;;;;;;;6.79;52.19;98281.34;5414261;26;20015;-60
2024/04/24 03:25:04;;;;;;;6.72;6.03;;;;;;;6.77;52.06;98278.94;5417405;26;20024;-61
2024/04/24 03:27:32;;;;;;;7.90;6.35;;;;;;;6.79;52.51;98273.19;5417437;26;20332;-61
2024/04/24 03:29:59;;;;;;;6.90;6.20;;;;;;;6.84;52.24;98267.59;5417422;26;20008;-61
2024/04/24 03:32:25;;;;;;;7.40;6.20;;;;;;;6.86;52.46;98262.63;5417207;26;20463;-61
2024/04/24 03:34:52;;;;;;;7.93;7.07;;;;;;;6.93;51.79;98262.91;5426602;26;20003;-61
2024/04/24 03:37:19;;;;;;;9.73;7.00;;;;;;;6.97;51.44;98267.31;5417658;26;20011;-61
2024/04/24 03:39:46;;;;;;;9.43;7.05;;;;;;;6.96;51.45;98256.81;5415650;26;20004;-61
2024/04/24 03:42:12;;;;;;;7.90;6.28;;;;;;;6.95;51.41;98263.38;5417184;26;19996;-61
2024/04/24 03:44:39;;;;;;;10.02;6.75;;;;;;;6.93;51.68;98258.28;5417286;26;20011;-61
2024/04/24 03:47:06;;;;;;;9.32;6.43;;;;;;;6.91;52.13;98257.81;5417425;26;20454;-62
2024/04/24 03:49:33;;;;;;;10.30;6.60;;;;;;;6.90;51.73;98255.44;5417233;26;20119;-61
2024/04/24 03:51:59;;;;;;;9.93;6.45;;;;;;;6.88;52.12;98260.38;5415298;26;19996;-61
2024/04/24 03:54:26;;;;;;;6.45;5.75;;;;;;;6.84;52.25;98264.88;5415248;26;20457;-61
2024/04/24 03:56:53;;;;;;;9.60;6.15;;;;;;;6.83;52.26;98258.66;5416823;26;19999;-60
2024/04/24 03:59:23;;;;;;;9.32;6.28;;;;;;;6.89;52.30;98267.41;5415473;26;20332;-61
2024/04/24 04:01:50;;;;;;;9.77;6.35;;;;;;;6.91;52.32;98257.03;5416603;26;20418;-62
2024/04/24 04:04:17;;;;;;;7.82;6.70;;;;;;;6.91;52.28;98265.94;5426534;26;20008;-62
2024/04/24 04:06:44;;;;;;;9.60;6.70;;;;;;;6.92;52.27;98255.91;5417016;26;20487;-61
2024/04/24 04:09:11;;;;;;;10.55;6.15;;;;;;;6.94;52.31;98259.06;5445091;26;20014;-62
2024/04/24 04:11:37;;;;;;;8.50;6.80;;;;;;;6.92;52.24;98262.13;5414897;26;20000;-61
2024/04/24 04:14:04;;;;;;;8.73;7.10;;;;;;;6.93;52.27;98260.19;5417043;26;20000;-60
2024/04/24 04:16:31;;;;;;;10.18;6.63;;;;;;;6.94;52.53;98261.78;5416929;26;20037;-62
2024/04/24 04:18:58;;;;;;;9.65;6.57;;;;;;;6.92;52.46;98256.69;5416701;26;20010;-60
2024/04/24 04:21:25;;;;;;;12.80;7.00;;;;;;;6.96;52.52;98256.81;5416732;26;20003;-60
2024/04/24 04:23:52;;;;;;;9.20;6.82;;;;;;;7.01;52.66;98253.91;5416678;26;20012;-63
2024/04/24 04:26:18;;;;;;;10.43;8.18;;;;;;;7.04;52.53;98250.53;5417112;26;20000;-60
2024/04/24 04:28:45;;;;;;;8.05;6.68;;;;;;;7.09;52.89;98249.56;5414584;26;20000;-60
2024/04/24 04:31:12;;;;;;;8.05;6.63;;;;;;;7.12;52.56;98248.88;5414446;26;20007;-61
2024/04/24 04:33:39;;;;;;;8.73;7.13;;;;;;;7.11;52.62;98242.66;5422749;26;20014;-62
2024/04/24 04:36:07;;;;;;;10.57;7.65;;;;;;;7.09;52.56;98242.22;5431225;26;20011;-62
2024/04/24 04:38:34;;;;;;;8.90;6.95;;;;;;;7.00;52.96;98244.19;5416125;26;20011;-61
2024/04/24 04:41:01;;;;;;;9.90;7.20;;;;;;;7.00;52.85;98236.06;5444112;26;19996;-61
2024/04/24 04:43:28;;;;;;;9.82;8.07;;;;;;;7.05;52.95;98237.75;5416193;26;20000;-60
2024/04/24 04:45:55;;;;;;;10.77;7.95;;;;;;;7.11;53.06;98234.53;5416339;26;20471;-61
2024/04/24 04:48:21;;;;;;;9.55;8.07;;;;;;;7.09;52.55;98233.28;5416186;26;19999;-61
2024/04/24 04:50:48;;;;;;;9.52;7.75;;;;;;;7.06;53.07;98242.06;5413822;26;20072;-62
2024/04/24 04:53:15;;;;;;;9.63;8.18;;;;;;;7.09;52.89;98225.94;5416064;26;20007;-61
2024/04/24 04:55:42;;;;;;;13.48;8.57;;;;;;;7.16;52.82;98228.91;5415758;26;20032;-61
2024/04/24 04:58:09;;;;;;;10.88;8.50;;;;;;;7.19;52.78;98232.84;5416208;26;20004;-62
2024/04/24 05:00:36;;;;;;;10.02;9.02;;;;;;;7.27;52.68;98238.22;5414557;26;20013;-61
2024/04/24 05:03:03;;;;;;;10.60;9.05;;;;;;;7.28;52.80;98237.09;5416242;26;20006;-61
2024/04/24 05:05:29;;;;;;;11.45;8.63;;;;;;;7.29;53.07;98243.31;5425477;26;20003;-62
2024/04/24 05:07:56;;;;;;;11.98;9.13;;;;;;;7.36;53.04;98242.75;5384776;26;20456;-61
2024/04/24 05:10:23;;;;;;;14.90;9.50;;;;;;;7.39;53.02;98239.38;5415548;26;20006;-62
2024/04/24 05:12:50;;;;;;;12.65;9.43;;;;;;;7.41;53.03;98245.25;5415913;26;20011;-61
2024/04/24 05:15:16;;;;;;;11.95;8.98;;;;;;;7.47;53.02;98235.81;5416110;26;19996;-61
2024/04/24 05:17:43;;;;;;;12.05;9.07;;;;;;;7.50;53.05;98238.63;5415939;26;20011;-61
2024/04/24 05:20:10;;;;;;;13.43;9.48;;;;;;;7.50;52.91;98235.13;5416133;26;20015;-62
2024/04/24 05:22:46;;;;;;;12.05;9.85;;;;;;;7.42;53.23;98242.22;5415641;26;19999;-62
2024/04/24 05:25:16;;;;;;;13.93;9.48;;;;;;;7.34;53.40;98243.09;5415998;26;20416;-62
2024/04/24 05:30:29;;;;;;;13.20;10.68;;;;;;;7.22;54.22;98232.19;5415930;26;20447;-62
2024/04/24 05:32:56;;;;;;;13.18;9.27;;;;;;;7.20;54.53;98229.81;5414047;26;20072;-61
2024/04/24 05:35:23;;;;;;;19.38;11.10;;;;;;;7.24;55.18;98232.66;5425047;26;20506;-62
2024/04/24 05:37:51;;;;;;;12.25;10.95;;;;;;;7.23;55.00;98237.28;5415650;26;20015;-63
2024/04/24 05:40:21;;;;;;;13.38;11.05;;;;;;;7.25;55.41;98232.34;5414805;26;20456;-62
2024/04/24 05:42:48;;;;;;;14.07;10.23;;;;;;;7.28;55.30;98228.16;5415451;26;20011;-62
2024/04/24 05:45:14;;;;;;;15.32;11.00;;;;;;;7.19;55.41;98230.94;5414315;26;20000;-62
2024/04/24 05:47:41;;;;;;;13.65;11.27;;;;;;;7.13;56.10;98226.06;5415458;26;20462;-62
2024/04/24 05:50:10;;;;;;;14.20;12.02;;;;;;;7.09;56.25;98233.28;5415147;26;20011;-61
2024/04/24 05:52:37;;;;;;;16.55;12.40;;;;;;;7.07;56.40;98228.19;5415249;26;20010;-62
2024/04/24 05:55:04;;;;;;;16.15;13.05;;;;;;;6.98;56.76;98230.16;5415253;26;20007;-63
2024/04/24 05:57:31;;;;;;;17.67;13.02;;;;;;;6.96;57.05;98221.59;5416013;26;20428;-62
2024/04/24 05:59:57;;;;;;;17.15;13.52;;;;;;;7.02;57.83;98228.38;5415206;26;20408;-62
2024/04/24 06:02:24;;;;;;;16.77;13.40;;;;;;;7.13;57.64;98217.94;5443333;26;19995;-61
2024/04/24 06:04:51;;;;;;;19.90;15.43;;;;;;;7.19;57.19;98220.09;5424508;26;20371;-61
2024/04/24 06:07:18;;;;;;;16.33;12.95;;;;;;;7.25;57.17;98212.53;5415204;26;20022;-61
2024/04/24 06:09:44;;;;;;;18.88;14.32;;;;;;;7.31;57.17;98197.66;5415273;26;20050;-62
2024/04/24 06:12:11;;;;;;;17.23;12.35;;;;;;;7.43;57.40;98207.72;5414654;26;20014;-62
2024/04/24 06:14:38;;;;;;;16.23;13.15;;;;;;;7.48;57.20;98202.91;5415042;26;20065;-61
2024/04/24 06:17:05;;;;;;;15.60;13.32;;;;;;;7.55;57.53;98205.06;5415071;26;19999;-62
2024/04/24 06:19:32;;;;;;;15.02;12.98;;;;;;;7.52;57.51;98216.59;5414908;26;20003;-61
2024/04/24 06:21:58;;;;;;;19.00;13.35;;;;;;;7.54;57.78;98217.03;5413361;26;19996;-61
2024/04/24 06:24:25;;;;;;;18.65;14.38;;;;;;;7.60;57.73;98216.47;5415126;26;20015;-62
2024/04/24 06:26:54;;;;;;;16.48;13.48;;;;;;;7.59;57.89;98219.53;5414995;26;20452;-62
2024/04/24 06:29:21;;;;;;;18.88;14.30;;;;;;;7.55;58.21;98221.34;5414839;26;19999;-63
2024/04/24 06:31:48;;;;;;;17.08;14.55;;;;;;;7.56;58.12;98221.00;5414792;26;20000;-63
2024/04/24 06:34:16;;;;;;;17.63;14.20;;;;;;;7.58;57.99;98218.75;5424087;26;20348;-63
2024/04/24 06:36:42;;;;;;;16.92;13.27;;;;;;;7.56;57.92;98215.56;5414513;26;20375;-63
2024/04/24 06:39:09;;;;;;;17.52;13.95;;;;;;;7.55;58.17;98215.91;5414744;26;20362;-63
2024/04/24 06:41:36;;;;;;;19.67;14.82;;;;;;;7.62;58.40;98213.44;5414719;26;20079;-62
2024/04/24 06:44:03;;;;;;;19.02;14.85;;;;;;;7.69;58.51;98213.69;5413361;26;20000;-63
2024/04/24 06:46:29;;;;;;;16.77;13.82;;;;;;;7.81;58.30;98216.44;5414617;26;20000;-63
2024/04/24 06:48:56;;;;;;;17.08;14.02;;;;;;;7.91;58.11;98215.19;5414171;26;20011;-62
2024/04/24 06:51:23;;;;;;;16.15;13.77;;;;;;;7.98;58.39;98211.91;5412445;26;19995;-63
2024/04/24 06:53:50;;;;;;;17.27;13.73;;;;;;;8.18;58.15;98208.28;5414784;26;20000;-64
2024/04/24 06:56:16;;;;;;;18.42;14.27;;;;;;;8.36;57.88;98201.50;5416206;26;19996;-64
2024/04/24 06:58:43;;;;;;;17.85;14.98;;;;;;;8.47;57.46;98197.22;5446530;26;20011;-62
2024/04/24 07:01:10;;;;;;;19.02;14.70;;;;;;;8.62;57.38;98200.38;5418297;26;20000;-64
2024/04/24 07:03:37;;;;;;;18.48;14.60;;;;;;;8.65;56.71;98205.09;5424732;26;20031;-63
2024/04/24 07:06:04;;;;;;;17.17;14.32;;;;;;;8.59;56.91;98203.78;5421042;26;20000;-64
2024/04/24 07:08:34;;;;;;;16.00;13.77;;;;;;;8.63;57.10;98201.94;5418683;26;19996;-63
2024/04/24 07:11:01;;;;;;;15.43;13.80;;;;;;;8.71;56.55;98188.22;5417513;26;20006;-64
2024/04/24 07:13:27;;;;;;;17.10;14.85;;;;;;;8.81;56.72;98192.38;5417671;26;20075;-63
2024/04/24 07:15:54;;;;;;;16.10;13.70;;;;;;;8.93;56.69;98184.19;5445738;26;19996;-63
2024/04/24 07:18:21;;;;;;;16.35;14.60;;;;;;;8.98;56.37;98196.75;5417823;26;20000;-64
2024/04/24 07:20:48;;;;;;;15.50;13.90;;;;;;;8.95;56.03;98187.38;5417310;26;20336;-63
2024/04/24 07:23:16;;;;;;;17.60;14.55;;;;;;;9.00;56.00;98180.88;5415958;26;20436;-64
2024/04/24 07:25:43;;;;;;;16.30;14.63;;;;;;;9.06;56.47;98193.09;5417412;26;19995;-64
2024/04/24 07:28:10;;;;;;;15.93;14.32;;;;;;;9.24;56.22;98182.69;5417832;26;20011;-63
2024/04/24 07:30:36;;;;;;;19.10;14.25;;;;;;;9.49;56.18;98183.38;5417212;26;19991;-63
2024/04/24 07:33:04;;;;;;;16.88;14.60;;;;;;;9.56;56.03;98180.84;5417431;26;20014;-63
2024/04/24 07:35:32;;;;;;;15.88;13.68;;;;;;;9.50;55.61;98184.97;5426398;26;20018;-63
2024/04/24 07:37:59;;;;;;;18.58;14.40;;;;;;;9.32;55.78;98185.28;5442655;26;20333;-63
2024/04/24 07:40:26;;;;;;;16.58;14.80;;;;;;;9.15;55.62;98195.66;5418026;26;20038;-63
2024/04/24 07:42:53;;;;;;;16.17;14.10;;;;;;;9.07;55.63;98189.22;5478734;26;20072;-63
2024/04/24 07:45:19;;;;;;;17.50;13.57;;;;;;;8.84;55.64;98186.25;5418080;26;20628;-63
2024/04/24 07:47:46;;;;;;;20.17;15.27;;;;;;;8.69;56.64;98178.81;5417619;26;20011;-63
2024/04/24 07:50:13;;;;;;;22.73;14.48;;;;;;;8.77;56.64;98170.53;5417704;26;20008;-63
2024/04/24 07:52:40;;;;;;;21.00;15.95;;;;;;;8.84;56.93;98175.38;5417634;26;20004;-63
2024/04/24 07:55:06;;;;;;;15.30;13.30;;;;;;;9.02;56.05;98173.16;5416882;26;20393;-63
2024/04/24 07:57:33;;;;;;;14.88;13.32;;;;;;;9.12;56.16;98171.88;5417310;26;20036;-63
2024/04/24 08:00:02;;;;;;;16.27;13.63;;;;;;;9.30;56.42;98171.22;5416959;26;19999;-63
2024/04/24 08:02:37;;;;;;;14.55;12.32;;;;;;;9.50;55.74;98168.63;5416587;26;20072;-63
2024/04/24 08:05:04;;;;;;;13.65;12.10;;;;;;;9.53;55.51;98167.94;5484401;26;20003;-62
2024/04/24 08:07:32;;;;;;;15.55;12.45;;;;;;;9.81;55.80;98162.38;5415989;26;20016;-62
2024/04/24 08:09:59;;;;;;;16.67;12.50;;;;;;;10.06;54.97;98168.47;5414679;26;20024;-62
2024/04/24 08:12:25;;;;;;;15.00;13.10;;;;;;;10.17;55.05;98169.47;5416488;26;20353;-63
2024/04/24 08:14:52;;;;;;;13.73;11.88;;;;;;;10.21;55.01;98164.94;5416662;26;20069;-63
2024/04/24 08:17:19;;;;;;;15.95;12.43;;;;;;;10.27;54.55;98163.53;5416939;26;20003;-63
2024/04/24 08:19:49;;;;;;;15.18;12.48;;;;;;;10.29;54.70;98155.78;5416885;26;19995;-62
2024/04/24 08:22:18;;;;;;;14.75;13.05;;;;;;;10.25;54.87;98155.72;5416815;26;20011;-62
2024/04/24 08:24:45;;;;;;;12.60;10.35;;;;;;;10.09;54.05;98152.19;5417262;26;19999;-63
2024/04/24 08:27:11;;;;;;;9.23;8.10;;;;;;;9.82;53.00;98161.25;5417902;26;20001;-62
2024/04/24 08:29:38;;;;;;;9.98;8.45;;;;;;;9.62;53.09;98152.19;5417414;26;20485;-63
2024/04/24 08:32:05;;;;;;;11.57;8.55;;;;;;;9.62;52.76;98154.91;5416546;26;20063;-64
2024/04/24 08:34:32;;;;;;;11.20;9.07;;;;;;;9.68;52.61;98146.16;5425810;26;20080;-63
2024/04/24 08:36:58;;;;;;;11.70;8.88;;;;;;;9.79;52.52;98160.03;5416477;26;20456;-63
2024/04/24 08:39:26;;;;;;;12.38;9.02;;;;;;;9.77;53.27;98147.91;5416735;26;20003;-63
2024/04/24 08:41:54;;;;;;;9.35;7.90;;;;;;;9.82;52.84;98153.06;5444437;26;19996;-64
2024/04/24 08:44:27;;;;;;;10.45;7.78;;;;;;;9.88;52.50;98149.75;5415130;26;20730;-63
2024/04/24 08:46:56;;;;;;;8.80;6.75;;;;;;;10.02;52.22;98146.56;5416869;26;20348;-64
2024/04/24 08:49:24;;;;;;;10.50;6.95;;;;;;;10.27;50.96;98144.47;5416703;26;20041;-64
2024/04/24 08:51:53;;;;;;;9.02;6.65;;;;;;;10.55;50.72;98144.28;5414563;26;20003;-64
2024/04/24 08:54:22;;;;;;;7.65;6.35;;;;;;;10.92;49.08;98131.81;5416517;26;19996;-64
2024/04/24 08:57:03;;;;;;;9.32;6.63;;;;;;;11.29;49.56;98134.06;5415444;26;20464;-64
2024/04/24 08:59:31;;;;;;;14.73;10.45;;;;;;;11.44;47.83;98124.19;5414837;26;19996;-64
2024/04/24 09:02:09;;;;;;;12.32;6.72;;;;;;;11.34;47.74;98130.22;5416080;26;20000;-64
2024/04/24 09:04:39;;;;;;;9.82;6.13;;;;;;;11.11;47.21;98131.00;5425470;26;20015;-64
2024/04/24 09:07:07;;;;;;;7.75;6.10;;;;;;;10.89;48.56;98134.47;5429320;26;20666;-64
2024/04/24 09:09:34;;;;;;;7.18;6.25;;;;;;;10.61;48.76;98132.75;5416101;26;20340;-63
2024/04/24 09:12:04;;;;;;;9.73;7.45;;;;;;;10.33;49.31;98143.03;5444082;26;20456;-64
2024/04/24 09:14:32;;;;;;;7.90;6.78;;;;;;;10.18;50.89;98130.97;5416055;26;20435;-64
2024/04/24 09:17:02;;;;;;;5.25;3.72;;;;;;;10.19;49.77;98123.59;5415939;26;20008;-64
2024/04/24 09:19:31;;;;;;;7.50;4.43;;;;;;;10.18;50.15;98127.47;5414279;26;19999;-63
2024/04/24 09:22:00;;;;;;;9.82;5.00;;;;;;;10.12;50.55;98118.00;5415971;26;20003;-64
2024/04/24 09:24:26;;;;;;;9.05;6.07;;;;;;;9.97;50.50;98127.78;5444172;26;20459;-63
2024/04/24 09:26:55;;;;;;;5.25;3.08;;;;;;;9.75;49.49;98131.94;5416291;26;20460;-63
2024/04/24 09:29:22;;;;;;;3.83;2.15;;;;;;;9.36;50.13;98125.50;5415960;26;20420;-64
2024/04/24 09:31:49;;;;;;;1.50;1.40;;;;;;;9.27;50.60;98127.59;5415468;26;20471;-65
2024/04/24 09:34:16;;;;;;;2.08;1.73;;;;;;;9.32;50.44;98125.41;5425156;26;20463;-64
2024/04/24 09:36:43;;;;;;;2.55;1.40;;;;;;;9.55;49.43;98120.16;5416053;26;20530;-66
2024/04/24 09:39:13;;;;;;;2.33;1.50;;;;;;;9.85;49.33;98116.97;5414006;26;19995;-67
2024/04/24 09:41:47;;;;;;;3.03;1.70;;;;;;;10.12;49.10;98116.06;5413692;26;19999;-65
2024/04/24 09:44:14;;;;;;;2.07;1.73;;;;;;;10.37;48.51;98118.56;5415730;26;19992;-66
2024/04/24 09:46:53;;;;;;;1.58;1.48;;;;;;;10.49;48.05;98107.56;5415660;26;19999;-67
2024/04/24 09:49:21;;;;;;;2.13;1.90;;;;;;;10.75;48.11;98098.72;5413770;26;20007;-65
2024/04/24 09:51:50;;;;;;;2.00;1.58;;;;;;;11.02;47.22;98105.09;5415359;26;20014;-65
2024/04/24 09:54:17;;;;;;;4.82;2.00;;;;;;;11.20;47.13;98096.09;5415659;26;20440;-64
2024/04/24 09:56:46;;;;;;;2.63;1.88;;;;;;;11.28;46.65;98088.03;5414970;26;20031;-63
2024/04/24 09:59:14;;;;;;;4.90;2.90;;;;;;;11.50;46.86;98088.00;5413742;26;19995;-63
2024/04/24 10:01:53;;;;;;;3.08;2.53;;;;;;;11.74;46.35;98086.88;5415056;26;20003;-63
2024/04/24 10:04:23;;;;;;;3.45;2.65;;;;;;;11.73;45.89;98084.50;5424326;26;19999;-64
2024/04/24 10:06:50;;;;;;;4.43;3.28;;;;;;;11.87;46.94;98078.47;5415336;26;20007;-63
2024/04/24 10:09:22;;;;;;;3.17;2.88;;;;;;;12.15;46.33;98076.16;5415401;26;20498;-64
2024/04/24 10:11:55;;;;;;;4.32;2.55;;;;;;;12.20;45.66;98069.59;5414986;26;20000;-64
2024/04/24 10:14:24;;;;;;;4.85;2.83;;;;;;;12.32;45.60;98070.16;5413299;26;20007;-63
2024/04/24 10:16:52;;;;;;;3.47;2.88;;;;;;;12.48;45.89;98058.25;5413450;26;20011;-64
2024/04/24 10:19:21;;;;;;;4.40;4.00;;;;;;;12.28;45.69;98055.66;5412990;26;20000;-64
2024/04/24 10:21:48;;;;;;;4.03;3.08;;;;;;;12.01;44.92;98049.44;5412960;26;20069;-64
2024/04/24 10:24:17;;;;;;;6.95;3.72;;;;;;;11.80;44.92;98057.31;5414804;26;20448;-63
2024/04/24 10:26:45;;;;;;;3.92;2.95;;;;;;;11.57;44.82;98056.53;5413358;26;20467;-63
2024/04/24 10:29:16;;;;;;;3.17;2.40;;;;;;;11.50;44.36;98057.97;5415186;26;20451;-63
2024/04/24 10:31:46;;;;;;;3.00;2.65;;;;;;;11.44;44.16;98058.66;5415166;26;20007;-64
2024/04/24 10:34:15;;;;;;;3.13;2.55;;;;;;;11.79;44.30;98058.47;5425730;26;20011;-62
2024/04/24 10:36:42;;;;;;;6.45;3.67;;;;;;;12.23;44.35;98055.97;5418512;26;20339;-64
2024/04/24 10:39:10;;;;;;;4.90;3.00;;;;;;;12.60;43.37;98039.63;5418304;26;20459;-63
2024/04/24 10:41:37;;;;;;;4.95;2.78;;;;;;;12.90;42.93;98039.59;5417883;26;20014;-64
2024/04/24 10:44:07;;;;;;;5.20;3.70;;;;;;;13.32;42.27;98044.69;5416600;26;19999;-64
2024/04/24 10:46:37;;;;;;;5.82;3.00;;;;;;;13.38;41.27;98033.41;5418511;26;19996;-64
2024/04/24 10:49:09;;;;;;;3.53;2.33;;;;;;;13.17;41.15;98036.69;5416180;26;20018;-63
2024/04/24 10:51:36;;;;;;;4.53;2.58;;;;;;;12.96;40.89;98034.56;5418032;26;20007;-63
2024/04/24 10:54:08;;;;;;;4.07;2.63;;;;;;;12.60;41.60;98025.16;5418144;26;20000;-64
2024/04/24 10:56:39;;;;;;;2.60;2.38;;;;;;;12.37;41.02;98036.22;5418217;26;20441;-63
2024/04/24 10:59:07;;;;;;;1.50;1.40;;;;;;;12.11;40.86;98029.66;5417946;26;20085;-64
2024/04/24 11:01:34;;;;;;;2.67;1.17;;;;;;;12.00;40.02;98033.41;5417774;26;20053;-64
2024/04/24 11:04:16;;;;;;;1.92;0.98;;;;;;;11.86;37.82;98022.25;5425447;26;20003;-64
2024/04/24 11:06:44;;;;;;;2.45;0.90;;;;;;;11.87;38.13;98035.56;5416392;26;20072;-63
2024/04/24 11:09:11;;;;;;;1.40;1.05;;;;;;;11.97;38.00;98021.28;5418159;26;20072;-64
2024/04/24 11:11:38;;;;;;;1.52;0.95;;;;;;;12.25;37.96;98022.78;5416671;26;20000;-62
2024/04/24 11:14:06;;;;;;;1.20;0.90;;;;;;;12.48;37.01;98023.50;5418473;26;19999;-62
2024/04/24 11:16:37;;;;;;;2.10;1.00;;;;;;;12.69;36.21;98015.53;5418318;26;20003;-62
2024/04/24 11:19:04;;;;;;;2.13;1.20;;;;;;;12.86;36.56;98002.41;5418510;26;20000;-62
2024/04/24 11:21:31;;;;;;;1.48;1.20;;;;;;;12.98;36.64;98002.91;5446045;26;20010;-62
2024/04/24 11:23:58;;;;;;;4.63;1.92;;;;;;;12.98;36.80;98010.31;5417975;26;19999;-62
2024/04/24 11:26:32;;;;;;;1.75;1.08;;;;;;;13.04;36.83;98011.56;5418134;26;20078;-62
2024/04/24 11:29:01;;;;;;;1.95;1.17;;;;;;;13.06;35.38;97995.56;5418407;26;20007;-64
2024/04/24 11:31:35;;;;;;;2.15;1.00;;;;;;;12.99;35.32;98001.75;5448362;26;20015;-62
2024/04/24 11:34:02;;;;;;;0.70;0.70;;;;;;;12.96;35.65;97993.50;5429374;26;20005;-62
2024/04/24 11:36:31;;;;;;;3.67;1.75;;;;;;;13.05;35.75;97988.50;5418928;26;20010;-63
2024/04/24 11:39:00;;;;;;;1.15;0.90;;;;;;;13.18;34.81;97989.81;5421086;26;19995;-62